createdAt,value
2023-05-13T00:00:20.307Z,98139.91
2023-05-13T00:02:23.605Z,98144.28
2023-05-13T00:04:28.107Z,98153.00
2023-05-13T00:06:32.267Z,98152.84
2023-05-13T00:08:35.464Z,98144.41
2023-05-13T00:10:38.535Z,98154.75
2023-05-13T00:12:41.533Z,98146.19
2023-05-13T00:14:44.530Z,98154.13
2023-05-13T00:16:47.644Z,98151.53
2023-05-13T00:18:51.272Z,98148.91
2023-05-13T00:20:56.287Z,98149.84
2023-05-13T00:22:59.356Z,98142.84
2023-05-13T00:25:02.425Z,98147.22
2023-05-13T00:27:05.955Z,98148.06
2023-05-13T00:29:09.177Z,98152.47
2023-05-13T00:31:12.624Z,98143.78
2023-05-13T00:33:15.810Z,98152.56
2023-05-13T00:35:18.952Z,98144.84
2023-05-13T00:37:23.512Z,98147.44
2023-05-13T00:39:27.251Z,98156.28
2023-05-13T00:41:30.281Z,98157.22
2023-05-13T00:43:33.329Z,98150.31
2023-05-13T00:45:37.979Z,98149.59
2023-05-13T00:47:41.598Z,98148.88
2023-05-13T00:49:45.020Z,98153.16
2023-05-13T00:51:48.077Z,98141.28
2023-05-13T00:53:52.698Z,98143.25
2023-05-13T00:55:56.073Z,98147.09
2023-05-13T00:57:59.115Z,98143.13
2023-05-13T01:00:02.760Z,98139.94
2023-05-13T01:02:18.006Z,98145.50
2023-05-13T01:04:28.355Z,98145.72
2023-05-13T01:06:36.568Z,98142.53
2023-05-13T01:08:45.031Z,98143.56
2023-05-13T01:10:52.674Z,98138.56
2023-05-13T01:13:00.206Z,98148.09
2023-05-13T01:15:06.992Z,98144.63
2023-05-13T01:17:13.397Z,98147.56
2023-05-13T01:19:36.895Z,98153.16
2023-05-13T01:21:41.353Z,98152.56
2023-05-13T01:23:44.431Z,98150.03
2023-05-13T01:25:47.851Z,98155.38
2023-05-13T01:27:51.684Z,98146.09
2023-05-13T01:29:56.753Z,98154.16
2023-05-13T01:32:04.695Z,98147.88
2023-05-13T01:34:10.432Z,98146.31
2023-05-13T01:36:14.370Z,98149.91
2023-05-13T01:38:20.017Z,98146.06
2023-05-13T01:40:32.895Z,98140.22
2023-05-13T01:42:41.922Z,98140.13
2023-05-13T01:44:45.154Z,98141.06
2023-05-13T01:46:49.089Z,98137.84
2023-05-13T01:48:53.334Z,98136.50
2023-05-13T01:50:57.112Z,98138.63
2023-05-13T01:53:00.215Z,98142.28
2023-05-13T01:55:05.065Z,98143.25
2023-05-13T01:57:09.184Z,98150.97
2023-05-13T01:59:12.421Z,98147.50
2023-05-13T02:01:15.469Z,98143.25
2023-05-13T02:03:18.960Z,98143.94
2023-05-13T02:05:23.220Z,98140.28
2023-05-13T02:07:26.931Z,98141.13
2023-05-13T02:09:30.103Z,98141.22
2023-05-13T02:11:35.767Z,98143.25
2023-05-13T02:13:38.850Z,98140.50
2023-05-13T02:15:42.020Z,98148.13
2023-05-13T02:17:45.688Z,98135.41
2023-05-13T02:19:49.665Z,98136.56
2023-05-13T02:21:52.764Z,98140.75
2023-05-13T02:23:56.045Z,98146.56
2023-05-13T02:25:59.141Z,98147.28
2023-05-13T02:28:05.593Z,98147.28
2023-05-13T02:30:09.659Z,98151.56
2023-05-13T02:32:12.802Z,98146.06
2023-05-13T02:34:15.891Z,98148.56
2023-05-13T02:36:18.884Z,98147.84
2023-05-13T02:38:22.325Z,98149.63
2023-05-13T02:40:25.721Z,98149.50
2023-05-13T02:42:28.750Z,98146.19
2023-05-13T02:44:33.325Z,98146.06
2023-05-13T02:46:37.658Z,98145.00
2023-05-13T02:48:41.352Z,98145.00
2023-05-13T02:50:44.391Z,98139.78
2023-05-13T02:52:47.781Z,98140.28
2023-05-13T02:54:51.180Z,98143.50
2023-05-13T02:56:54.405Z,98146.13
2023-05-13T02:58:57.485Z,98142.78
2023-05-13T03:01:02.006Z,98142.16
2023-05-13T03:03:05.319Z,98147.94
2023-05-13T03:05:09.285Z,98142.00
2023-05-13T03:07:12.288Z,98141.91
2023-05-13T03:09:15.402Z,98139.38
2023-05-13T03:11:18.468Z,98143.78
2023-05-13T03:13:21.534Z,98144.28
2023-05-13T03:15:24.771Z,98141.19
2023-05-13T03:17:30.962Z,98142.59
2023-05-13T03:19:35.348Z,98144.28
2023-05-13T03:21:38.453Z,98147.16
2023-05-13T03:23:43.988Z,98149.28
2023-05-13T03:25:47.124Z,98140.75
2023-05-13T03:27:50.530Z,98148.47
2023-05-13T03:29:56.403Z,98148.25
2023-05-13T03:32:00.938Z,98160.22
2023-05-13T03:34:05.649Z,98154.63
2023-05-13T03:36:10.021Z,98152.00
2023-05-13T03:38:13.335Z,98152.63
2023-05-13T03:40:20.997Z,98152.63
2023-05-13T03:42:26.579Z,98156.09
2023-05-13T03:44:31.766Z,98149.06
2023-05-13T03:46:35.200Z,98150.00
2023-05-13T03:48:38.378Z,98159.53
2023-05-13T03:50:43.070Z,98152.00
2023-05-13T03:52:47.115Z,98146.78
2023-05-13T03:54:51.979Z,98154.75
2023-05-13T03:56:55.179Z,98152.00
2023-05-13T03:58:58.221Z,98153.59
2023-05-13T04:01:04.216Z,98159.63
2023-05-13T04:03:07.361Z,98166.66
2023-05-13T04:05:11.730Z,98161.34
2023-05-13T04:07:16.196Z,98159.69
2023-05-13T04:09:19.275Z,98165.53
2023-05-13T04:11:22.597Z,98170.63
2023-05-13T04:13:25.708Z,98171.47
2023-05-13T04:15:28.792Z,98180.16
2023-05-13T04:17:31.912Z,98172.31
2023-05-13T04:19:35.016Z,98173.13
2023-05-13T04:21:38.066Z,98186.09
2023-05-13T04:23:43.073Z,98178.38
2023-05-13T04:25:51.994Z,98184.41
2023-05-13T04:27:55.066Z,98187.66
2023-05-13T04:30:07.596Z,98193.81
2023-05-13T04:32:15.989Z,98188.72
2023-05-13T04:34:19.669Z,98187.88
2023-05-13T04:36:24.791Z,98190.44
2023-05-13T04:38:29.161Z,98191.50
2023-05-13T04:40:33.847Z,98190.88
2023-05-13T04:42:44.332Z,98202.16
2023-05-13T04:44:47.511Z,98194.22
2023-05-13T04:46:50.988Z,98194.22
2023-05-13T04:48:54.157Z,98193.94
2023-05-13T04:50:58.454Z,98196.44
2023-05-13T04:53:01.995Z,98199.44
2023-05-13T04:55:06.179Z,98192.13
2023-05-13T04:57:10.977Z,98199.00
2023-05-13T04:59:14.014Z,98198.78
2023-05-13T05:01:17.446Z,98203.78
2023-05-13T05:03:21.021Z,98205.25
2023-05-13T05:05:24.210Z,98208.25
2023-05-13T05:07:28.478Z,98207.91
2023-05-13T05:09:31.543Z,98217.09
2023-05-13T05:11:35.742Z,98206.44
2023-05-13T05:13:40.179Z,98211.69
2023-05-13T05:15:45.579Z,98225.88
2023-05-13T05:17:50.399Z,98221.69
2023-05-13T05:19:53.601Z,98219.38
2023-05-13T05:21:59.140Z,98228.31
2023-05-13T05:24:02.914Z,98232.97
2023-05-13T05:26:11.633Z,98235.59
2023-05-13T05:28:16.539Z,98236.09
2023-05-13T05:30:22.186Z,98237.66
2023-05-13T05:32:32.762Z,98239.22
2023-05-13T05:34:36.501Z,98243.25
2023-05-13T05:36:40.036Z,98248.03
2023-05-13T05:38:43.140Z,98243.22
2023-05-13T05:40:47.774Z,98256.19
2023-05-13T05:42:51.108Z,98248.91
2023-05-13T05:44:54.166Z,98254.25
2023-05-13T05:46:58.702Z,98249.72
2023-05-13T05:49:03.613Z,98255.56
2023-05-13T05:51:09.319Z,98255.97
2023-05-13T05:53:12.918Z,98253.94
2023-05-13T05:55:19.287Z,98257.03
2023-05-13T05:57:22.397Z,98261.03
2023-05-13T05:59:25.460Z,98259.34
2023-05-13T06:01:29.741Z,98261.72
2023-05-13T06:03:36.591Z,98253.06
2023-05-13T06:05:40.585Z,98256.50
2023-05-13T06:07:43.678Z,98259.59
2023-05-13T06:09:46.785Z,98261.63
2023-05-13T06:11:50.348Z,98272.22
2023-05-13T06:13:54.279Z,98271.16
2023-05-13T06:15:58.038Z,98268.19
2023-05-13T06:18:02.063Z,98269.84
2023-05-13T06:20:07.910Z,98272.13
2023-05-13T06:22:12.429Z,98271.06
2023-05-13T06:24:15.549Z,98275.94
2023-05-13T06:26:18.611Z,98263.22
2023-05-13T06:28:21.756Z,98277.53
2023-05-13T06:30:27.006Z,98280.63
2023-05-13T06:32:30.117Z,98278.47
2023-05-13T06:34:33.290Z,98269.44
2023-05-13T06:36:37.765Z,98272.78
2023-05-13T06:38:43.620Z,98274.91
2023-05-13T06:40:56.846Z,98273.25
2023-05-13T06:43:07.404Z,98274.69
2023-05-13T06:45:14.534Z,98274.31
2023-05-13T06:47:18.696Z,98273.09
2023-05-13T06:49:21.861Z,98276.44
2023-05-13T06:51:26.314Z,98280.63
2023-05-13T06:53:31.813Z,98284.81
2023-05-13T06:55:41.337Z,98281.09
2023-05-13T06:57:46.671Z,98285.38
2023-05-13T06:59:49.762Z,98280.63
2023-05-13T07:01:52.919Z,98283.00
2023-05-13T07:03:56.097Z,98278.47
2023-05-13T07:05:59.181Z,98282.66
2023-05-13T07:08:06.666Z,98280.38
2023-05-13T07:10:12.046Z,98283.34
2023-05-13T07:12:15.301Z,98284.63
2023-05-13T07:14:18.496Z,98282.59
2023-05-13T07:16:21.782Z,98278.31
2023-05-13T07:18:24.964Z,98284.16
2023-05-13T07:20:28.102Z,98280.84
2023-05-13T07:22:31.185Z,98276.31
2023-05-13T07:24:34.282Z,98269.53
2023-05-13T07:26:38.951Z,98279.91
2023-05-13T07:28:42.074Z,98277.28
2023-05-13T07:30:45.137Z,98283.34
2023-05-13T07:32:48.809Z,98285.25
2023-05-13T07:34:54.398Z,98289.88
2023-05-13T07:36:58.019Z,98281.19
2023-05-13T07:39:02.204Z,98283.47
2023-05-13T07:41:05.575Z,98283.81
2023-05-13T07:43:10.613Z,98281.22
2023-05-13T07:45:13.863Z,98284.34
2023-05-13T07:47:17.094Z,98284.13
2023-05-13T07:49:20.369Z,98283.75
2023-05-13T07:51:23.474Z,98286.03
2023-05-13T07:53:26.724Z,98289.72
2023-05-13T07:55:29.844Z,98286.16
2023-05-13T07:57:33.036Z,98291.41
2023-05-13T07:59:38.835Z,98287.09
2023-05-13T08:01:43.654Z,98289.25
2023-05-13T08:03:46.908Z,98298.91
2023-05-13T08:05:50.334Z,98301.19
2023-05-13T08:07:56.252Z,98295.94
2023-05-13T08:09:59.352Z,98292.84
2023-05-13T08:12:02.542Z,98291.41
2023-05-13T08:14:06.229Z,98292.34
2023-05-13T08:16:11.042Z,98283.28
2023-05-13T08:18:14.126Z,98289.97
2023-05-13T08:20:17.280Z,98292.13
2023-05-13T08:22:20.437Z,98296.38
2023-05-13T08:24:23.547Z,98295.50
2023-05-13T08:26:26.880Z,98292.13
2023-05-13T08:28:32.738Z,98293.44
2023-05-13T08:30:35.855Z,98305.81
2023-05-13T08:32:40.442Z,98299.13
2023-05-13T08:34:43.599Z,98299.25
2023-05-13T08:36:46.647Z,98302.56
2023-05-13T08:38:49.777Z,98301.69
2023-05-13T08:40:52.915Z,98311.69
2023-05-13T08:42:57.172Z,98304.25
2023-05-13T08:45:02.047Z,98309.72
2023-05-13T08:47:13.780Z,98308.38
2023-05-13T08:49:21.850Z,98314.47
2023-05-13T08:51:25.058Z,98312.69
2023-05-13T08:53:28.239Z,98314.84
2023-05-13T08:55:31.499Z,98311.25
2023-05-13T08:57:34.574Z,98309.59
2023-05-13T08:59:37.707Z,98309.28
2023-05-13T09:01:40.836Z,98300.94
2023-05-13T09:03:53.753Z,98313.22
2023-05-13T09:05:58.252Z,98314.25
2023-05-13T09:08:04.117Z,98311.13
2023-05-13T09:10:08.977Z,98310.69
2023-05-13T09:12:12.080Z,98314.72
2023-05-13T09:14:15.154Z,98307.09
2023-05-13T09:16:18.364Z,98310.19
2023-05-13T09:18:22.906Z,98308.81
2023-05-13T09:20:28.974Z,98310.63
2023-05-13T09:22:33.568Z,98310.41
2023-05-13T09:24:36.798Z,98309.47
2023-05-13T09:26:40.599Z,98312.66
2023-05-13T09:28:43.698Z,98312.78
2023-05-13T09:30:55.718Z,98304.69
2023-05-13T09:33:12.117Z,98311.72
2023-05-13T09:35:20.105Z,98306.97
2023-05-13T09:37:26.206Z,98301.38
2023-05-13T09:39:33.612Z,98303.56
2023-05-13T09:41:37.337Z,98309.00
2023-05-13T09:43:40.883Z,98307.09
2023-05-13T09:45:44.155Z,98308.75
2023-05-13T09:47:52.156Z,98308.25
2023-05-13T09:49:56.843Z,98312.53
2023-05-13T09:51:59.961Z,98319.66
2023-05-13T09:54:06.698Z,98319.25
2023-05-13T09:56:11.216Z,98320.13
2023-05-13T09:58:14.545Z,98323.50
2023-05-13T10:00:31.634Z,98327.78
2023-05-13T10:02:35.760Z,98323.03
2023-05-13T10:04:40.699Z,98335.03
2023-05-13T10:06:44.150Z,98322.97
2023-05-13T10:08:48.514Z,98332.16
2023-05-13T10:10:55.556Z,98323.28
2023-05-13T10:13:05.678Z,98327.84
2023-05-13T10:15:10.614Z,98332.44
2023-05-13T10:17:13.800Z,98330.94
2023-05-13T10:19:17.637Z,98318.69
2023-05-13T10:21:23.851Z,98321.06
2023-05-13T10:23:34.835Z,98319.56
2023-05-13T10:25:38.916Z,98324.13
2023-05-13T10:27:43.625Z,98321.41
2023-05-13T10:29:48.562Z,98321.03
2023-05-13T10:31:52.117Z,98326.50
2023-05-13T10:33:55.389Z,98324.44
2023-05-13T10:36:07.005Z,98316.19
2023-05-13T10:38:20.762Z,98328.69
2023-05-13T10:40:33.173Z,98316.28
2023-05-13T10:42:42.813Z,98319.34
2023-05-13T10:44:46.146Z,98323.16
2023-05-13T10:46:53.682Z,98323.56
2023-05-13T10:48:58.308Z,98326.41
2023-05-13T10:51:03.987Z,98328.53
2023-05-13T10:53:10.066Z,98327.06
2023-05-13T10:55:17.815Z,98333.75
2023-05-13T10:57:29.467Z,98328.34
2023-05-13T10:59:34.023Z,98330.09
2023-05-13T11:01:39.281Z,98327.19
2023-05-13T11:03:52.388Z,98332.03
2023-05-13T11:06:16.775Z,98326.75
2023-05-13T11:08:37.646Z,98332.34
2023-05-13T11:10:41.949Z,98333.41
2023-05-13T11:13:09.058Z,98333.88
2023-05-13T11:15:22.652Z,98327.81
2023-05-13T11:17:25.946Z,98328.84
2023-05-13T11:19:31.208Z,98326.66
2023-05-13T11:21:39.653Z,98328.19
2023-05-13T11:23:53.929Z,98323.09
2023-05-13T11:26:16.185Z,98321.50
2023-05-13T11:28:19.427Z,98332.31
2023-05-13T11:30:24.437Z,98328.00
2023-05-13T11:32:53.653Z,98324.31
2023-05-13T11:34:58.295Z,98325.94
2023-05-13T11:37:11.236Z,98322.09
2023-05-13T11:39:18.855Z,98326.41
2023-05-13T11:41:23.165Z,98331.09
2023-05-13T11:43:26.267Z,98323.59
2023-05-13T11:45:30.786Z,98329.81
2023-05-13T11:47:34.029Z,98329.41
2023-05-13T11:49:41.363Z,98329.72
2023-05-13T11:51:46.031Z,98326.94
2023-05-13T11:53:49.108Z,98322.28
2023-05-13T11:55:52.316Z,98327.84
2023-05-13T11:57:55.854Z,98330.47
2023-05-13T12:00:01.824Z,98334.91
2023-05-13T12:02:05.525Z,98328.91
2023-05-13T12:04:08.624Z,98320.53
2023-05-13T12:06:11.825Z,98322.44
2023-05-13T12:08:16.291Z,98330.25
2023-05-13T12:10:19.644Z,98326.69
2023-05-13T12:12:22.933Z,98330.75
2023-05-13T12:14:27.903Z,98339.38
2023-05-13T12:16:31.293Z,98325.78
2023-05-13T12:18:34.740Z,98327.03
2023-05-13T12:20:39.093Z,98331.63
2023-05-13T12:22:53.370Z,98327.34
2023-05-13T12:25:01.034Z,98329.81
2023-05-13T12:27:10.116Z,98325.25
2023-05-13T12:29:14.640Z,98321.63
2023-05-13T12:31:18.469Z,98325.88
2023-05-13T12:33:23.156Z,98319.53
2023-05-13T12:35:26.236Z,98324.53
2023-05-13T12:37:29.340Z,98320.38
2023-05-13T12:39:32.413Z,98326.78
2023-05-13T12:41:37.929Z,98333.69
2023-05-13T12:43:42.820Z,98333.03
2023-05-13T12:45:47.189Z,98332.59
2023-05-13T12:47:50.850Z,98328.16
2023-05-13T12:49:54.381Z,98335.63
2023-05-13T12:51:57.538Z,98338.34
2023-05-13T12:54:00.905Z,98334.72
2023-05-13T12:56:04.083Z,98329.72
2023-05-13T12:58:11.863Z,98335.84
2023-05-13T13:00:15.997Z,98336.69
2023-05-13T13:02:19.068Z,98336.41
2023-05-13T13:04:22.173Z,98346.78
2023-05-13T13:06:25.363Z,98333.91
2023-05-13T13:08:30.592Z,98336.94
2023-05-13T13:10:34.174Z,98335.47
2023-05-13T13:12:37.301Z,98338.09
2023-05-13T13:14:42.659Z,98343.09
2023-05-13T13:16:46.838Z,98333.38
2023-05-13T13:18:55.706Z,98334.78
2023-05-13T13:20:58.999Z,98329.53
2023-05-13T13:23:02.123Z,98328.69
2023-05-13T13:25:06.521Z,98324.84
2023-05-13T13:27:12.563Z,98323.31
2023-05-13T13:29:15.692Z,98329.25
2023-05-13T13:31:20.074Z,98328.88
2023-05-13T13:33:23.176Z,98327.63
2023-05-13T13:35:26.337Z,98326.25
2023-05-13T13:37:29.424Z,98321.91
2023-05-13T13:39:33.465Z,98318.16
2023-05-13T13:41:36.480Z,98317.34
2023-05-13T13:43:42.017Z,98302.06
2023-05-13T13:45:45.146Z,98309.03
2023-05-13T13:47:49.662Z,98302.94
2023-05-13T13:49:52.717Z,98300.41
2023-05-13T13:51:56.394Z,98301.34
2023-05-13T13:54:05.019Z,98297.84
2023-05-13T13:56:08.276Z,98295.22
2023-05-13T13:58:11.402Z,98288.44
2023-05-13T14:00:15.551Z,98290.94
2023-05-13T14:02:18.674Z,98286.19
2023-05-13T14:04:23.713Z,98292.00
2023-05-13T14:06:29.208Z,98290.91
2023-05-13T14:08:32.304Z,98288.41
2023-05-13T14:10:35.583Z,98293.97
2023-05-13T14:12:39.323Z,98282.34
2023-05-13T14:14:42.378Z,98288.47
2023-05-13T14:16:45.613Z,98292.63
2023-05-13T14:18:48.818Z,98287.06
2023-05-13T14:20:53.327Z,98278.91
2023-05-13T14:22:56.637Z,98285.25
2023-05-13T14:25:00.210Z,98281.78
2023-05-13T14:27:03.350Z,98282.88
2023-05-13T14:29:06.539Z,98288.00
2023-05-13T14:31:09.596Z,98276.59
2023-05-13T14:33:12.774Z,98278.94
2023-05-13T14:35:17.069Z,98276.47
2023-05-13T14:37:21.662Z,98273.13
2023-05-13T14:39:24.808Z,98274.38
2023-05-13T14:41:29.502Z,98273.31
2023-05-13T14:43:32.691Z,98271.25
2023-05-13T14:45:36.521Z,98276.94
2023-05-13T14:47:42.522Z,98271.13
2023-05-13T14:49:45.633Z,98265.88
2023-05-13T14:51:48.807Z,98267.66
2023-05-13T14:53:53.286Z,98264.47
2023-05-13T14:55:56.562Z,98259.09
2023-05-13T14:58:03.564Z,98254.91
2023-05-13T15:00:08.638Z,98262.81
2023-05-13T15:02:13.757Z,98257.84
2023-05-13T15:04:16.970Z,98259.91
2023-05-13T15:06:20.486Z,98252.84
2023-05-13T15:08:23.650Z,98247.16
2023-05-13T15:10:28.149Z,98247.72
2023-05-13T15:12:31.321Z,98245.66
2023-05-13T15:14:34.442Z,98245.22
2023-05-13T15:16:37.937Z,98246.75
2023-05-13T15:18:41.159Z,98248.00
2023-05-13T15:20:45.367Z,98251.59
2023-05-13T15:22:48.425Z,98251.44
2023-05-13T15:24:51.490Z,98242.47
2023-05-13T15:26:55.979Z,98248.28
2023-05-13T15:28:59.216Z,98238.69
2023-05-13T15:31:02.525Z,98243.97
2023-05-13T15:33:05.816Z,98247.97
2023-05-13T15:35:09.746Z,98250.06
2023-05-13T15:37:12.912Z,98236.47
2023-05-13T15:39:17.180Z,98237.44
2023-05-13T15:41:20.323Z,98237.44
2023-05-13T15:43:24.924Z,98240.88
2023-05-13T15:45:30.742Z,98242.16
2023-05-13T15:47:33.971Z,98238.44
2023-05-13T15:49:37.386Z,98234.66
2023-05-13T15:51:40.940Z,98238.00
2023-05-13T15:53:44.052Z,98235.09
2023-05-13T15:55:49.797Z,98236.63
2023-05-13T15:57:52.916Z,98238.16
2023-05-13T15:59:57.400Z,98238.69
2023-05-13T16:02:00.511Z,98233.97
2023-05-13T16:04:03.758Z,98231.75
2023-05-13T16:06:07.261Z,98225.53
2023-05-13T16:08:10.323Z,98222.22
2023-05-13T16:10:13.509Z,98225.53
2023-05-13T16:12:16.592Z,98223.59
2023-05-13T16:14:19.755Z,98227.91
2023-05-13T16:16:24.814Z,98218.31
2023-05-13T16:18:27.951Z,98219.72
2023-05-13T16:20:31.033Z,98215.72
2023-05-13T16:22:37.785Z,98219.16
2023-05-13T16:24:41.120Z,98225.81
2023-05-13T16:26:44.505Z,98224.97
2023-05-13T16:28:47.643Z,98214.31
2023-05-13T16:30:51.340Z,98223.59
2023-05-13T16:32:56.032Z,98221.50
2023-05-13T16:35:01.327Z,98215.28
2023-05-13T16:37:04.862Z,98223.31
2023-05-13T16:39:08.031Z,98211.78
2023-05-13T16:41:11.684Z,98220.41
2023-05-13T16:43:14.727Z,98220.13
2023-05-13T16:45:18.426Z,98218.31
2023-05-13T16:47:21.917Z,98218.31
2023-05-13T16:49:26.381Z,98218.19
2023-05-13T16:51:29.488Z,98211.81
2023-05-13T16:53:32.558Z,98221.34
2023-05-13T16:55:36.407Z,98214.44
2023-05-13T16:57:42.057Z,98216.22
2023-05-13T16:59:50.530Z,98209.44
2023-05-13T17:01:56.339Z,98208.59
2023-05-13T17:03:59.471Z,98204.31
2023-05-13T17:06:04.174Z,98203.31
2023-05-13T17:08:10.313Z,98212.22
2023-05-13T17:10:13.399Z,98208.59
2023-05-13T17:12:17.026Z,98206.69
2023-05-13T17:14:20.215Z,98205.81
2023-05-13T17:16:26.208Z,98203.75
2023-05-13T17:18:29.284Z,98208.19
2023-05-13T17:20:32.385Z,98202.91
2023-05-13T17:22:36.830Z,98208.03
2023-05-13T17:24:40.583Z,98206.94
2023-05-13T17:26:43.733Z,98204.97
2023-05-13T17:28:46.920Z,98207.19
2023-05-13T17:30:53.006Z,98210.53
2023-05-13T17:32:56.361Z,98204.41
2023-05-13T17:34:59.938Z,98209.56
2023-05-13T17:37:03.004Z,98206.78
2023-05-13T17:39:07.546Z,98213.56
2023-05-13T17:41:10.615Z,98210.13
2023-05-13T17:43:13.677Z,98206.34
2023-05-13T17:45:16.863Z,98209.69
2023-05-13T17:47:21.718Z,98210.50
2023-05-13T17:49:24.896Z,98208.69
2023-05-13T17:51:27.963Z,98205.94
2023-05-13T17:53:32.922Z,98206.06
2023-05-13T17:55:39.161Z,98209.69
2023-05-13T17:57:42.225Z,98207.19
2023-05-13T17:59:45.268Z,98205.66
2023-05-13T18:01:48.357Z,98214.53
2023-05-13T18:03:51.563Z,98212.91
2023-05-13T18:05:54.892Z,98210.41
2023-05-13T18:07:58.102Z,98214.13
2023-05-13T18:10:01.202Z,98205.69
2023-05-13T18:12:08.649Z,98211.09
2023-05-13T18:14:11.733Z,98210.38
2023-05-13T18:16:15.744Z,98210.53
2023-05-13T18:18:20.343Z,98214.44
2023-05-13T18:20:23.818Z,98209.59
2023-05-13T18:22:27.115Z,98207.50
2023-05-13T18:24:30.330Z,98215.41
2023-05-13T18:26:33.359Z,98209.75
2023-05-13T18:28:37.869Z,98224.16
2023-05-13T18:30:40.974Z,98221.94
2023-05-13T18:32:44.137Z,98219.72
2023-05-13T18:34:47.301Z,98218.31
2023-05-13T18:36:51.914Z,98226.34
2023-05-13T18:38:55.346Z,98222.22
2023-05-13T18:41:03.007Z,98229.41
2023-05-13T18:43:08.628Z,98222.63
2023-05-13T18:45:13.214Z,98230.66
2023-05-13T18:47:19.445Z,98231.91
2023-05-13T18:49:23.085Z,98236.63
2023-05-13T18:51:28.985Z,98238.84
2023-05-13T18:53:32.161Z,98232.31
2023-05-13T18:55:35.668Z,98236.31
2023-05-13T18:57:39.401Z,98227.94
2023-05-13T18:59:45.361Z,98224.06
2023-05-13T19:01:50.201Z,98236.78
2023-05-13T19:03:53.551Z,98236.25
2023-05-13T19:05:56.702Z,98230.53
2023-05-13T19:08:03.243Z,98234.53
2023-05-13T19:10:09.024Z,98236.75
2023-05-13T19:12:15.054Z,98238.94
2023-05-13T19:14:18.129Z,98241.13
2023-05-13T19:16:21.217Z,98242.50
2023-05-13T19:18:25.749Z,98242.19
2023-05-13T19:20:28.861Z,98247.03
2023-05-13T19:22:34.373Z,98244.91
2023-05-13T19:24:40.156Z,98240.19
2023-05-13T19:26:43.246Z,98236.13
2023-05-13T19:28:47.293Z,98240.97
2023-05-13T19:30:50.407Z,98239.00
2023-05-13T19:32:53.628Z,98244.75
2023-05-13T19:35:00.516Z,98252.47
2023-05-13T19:37:04.989Z,98247.56
2023-05-13T19:39:08.168Z,98244.63
2023-05-13T19:41:11.395Z,98240.84
2023-05-13T19:43:17.427Z,98246.59
2023-05-13T19:45:23.197Z,98248.91
2023-05-13T19:47:27.649Z,98251.91
2023-05-13T19:49:30.814Z,98247.88
2023-05-13T19:51:35.342Z,98252.81
2023-05-13T19:53:38.423Z,98253.06
2023-05-13T19:55:41.727Z,98254.00
2023-05-13T19:57:44.851Z,98254.97
2023-05-13T19:59:48.014Z,98258.44
2023-05-13T20:01:51.206Z,98254.97
2023-05-13T20:03:55.409Z,98259.38
2023-05-13T20:05:59.262Z,98260.09
2023-05-13T20:08:03.965Z,98258.06
2023-05-13T20:10:08.582Z,98257.94
2023-05-13T20:12:12.274Z,98257.69
2023-05-13T20:14:17.133Z,98258.50
2023-05-13T20:16:22.314Z,98265.44
2023-05-13T20:18:25.779Z,98265.44
2023-05-13T20:20:29.028Z,98263.63
2023-05-13T20:22:32.198Z,98261.81
2023-05-13T20:24:36.860Z,98264.44
2023-05-13T20:26:39.966Z,98267.94
2023-05-13T20:28:45.109Z,98263.75
2023-05-13T20:30:48.261Z,98262.09
2023-05-13T20:32:51.548Z,98267.34
2023-05-13T20:34:55.230Z,98260.44
2023-05-13T20:36:58.430Z,98259.59
2023-05-13T20:39:01.612Z,98262.34
2023-05-13T20:41:07.182Z,98257.09
2023-05-13T20:43:10.322Z,98257.22
2023-05-13T20:45:13.811Z,98259.97
2023-05-13T20:47:17.146Z,98253.19
2023-05-13T20:49:20.236Z,98259.50
2023-05-13T20:51:23.386Z,98252.59
2023-05-13T20:53:26.588Z,98246.63
2023-05-13T20:55:29.707Z,98252.84
2023-05-13T20:57:34.147Z,98249.38
2023-05-13T20:59:37.840Z,98249.50
2023-05-13T21:01:41.459Z,98246.06
2023-05-13T21:03:44.669Z,98250.47
2023-05-13T21:05:47.765Z,98249.75
2023-05-13T21:07:50.896Z,98241.19
2023-05-13T21:09:53.982Z,98239.50
2023-05-13T21:11:57.050Z,98240.47
2023-05-13T21:14:01.486Z,98242.38
2023-05-13T21:16:05.287Z,98245.00
2023-05-13T21:18:08.551Z,98243.34
2023-05-13T21:20:12.884Z,98241.81
2023-05-13T21:22:16.544Z,98247.88
2023-05-13T21:24:20.304Z,98235.00
2023-05-13T21:26:23.421Z,98233.22
2023-05-13T21:28:26.480Z,98231.44
2023-05-13T21:30:32.118Z,98230.72
2023-05-13T21:32:35.203Z,98233.34
2023-05-13T21:34:38.276Z,98237.06
2023-05-13T21:36:41.325Z,98239.81
2023-05-13T21:38:44.410Z,98237.19
2023-05-13T21:40:47.505Z,98243.25
2023-05-13T21:42:51.135Z,98243.25
2023-05-13T21:44:54.297Z,98241.72
2023-05-13T21:46:58.811Z,98244.47
2023-05-13T21:49:01.961Z,98240.31
2023-05-13T21:51:05.423Z,98239.72
2023-05-13T21:53:08.541Z,98229.34
2023-05-13T21:55:11.631Z,98231.97
2023-05-13T21:57:14.606Z,98230.16
2023-05-13T21:59:17.721Z,98224.94
2023-05-13T22:01:21.224Z,98226.03
2023-05-13T22:03:25.829Z,98229.59
2023-05-13T22:05:29.207Z,98227.34
2023-05-13T22:07:32.396Z,98229.28
2023-05-13T22:09:35.628Z,98231.16
2023-05-13T22:11:38.757Z,98220.78
2023-05-13T22:13:42.129Z,98218.91
2023-05-13T22:15:45.113Z,98218.78
2023-05-13T22:17:49.970Z,98225.66
2023-05-13T22:19:55.222Z,98222.22
2023-05-13T22:21:58.195Z,98223.28
2023-05-13T22:24:01.290Z,98226.88
2023-05-13T22:26:05.143Z,98220.91
2023-05-13T22:28:08.316Z,98218.28
2023-05-13T22:30:11.854Z,98222.59
2023-05-13T22:32:15.037Z,98220.91
2023-05-13T22:34:18.110Z,98209.47
2023-05-13T22:36:22.541Z,98207.91
2023-05-13T22:38:25.637Z,98218.41
2023-05-13T22:40:28.934Z,98213.16
2023-05-13T22:42:31.956Z,98215.91
2023-05-13T22:44:35.116Z,98213.41
2023-05-13T22:46:38.464Z,98211.03
2023-05-13T22:48:41.517Z,98213.66
2023-05-13T22:50:44.691Z,98210.34
2023-05-13T22:52:49.131Z,98209.75
2023-05-13T22:54:52.298Z,98212.25
2023-05-13T22:56:55.362Z,98211.28
2023-05-13T22:58:58.390Z,98213.78
2023-05-13T23:01:01.356Z,98209.38
2023-05-13T23:03:04.805Z,98210.22
2023-05-13T23:05:08.460Z,98208.41
2023-05-13T23:07:11.880Z,98204.84
2023-05-13T23:09:16.288Z,98198.16
2023-05-13T23:11:19.390Z,98198.38
2023-05-13T23:13:22.444Z,98192.44
2023-05-13T23:15:25.573Z,98188.16
2023-05-13T23:17:28.634Z,98190.78
2023-05-13T23:19:31.736Z,98189.00
2023-05-13T23:21:35.231Z,98191.50
2023-05-13T23:23:38.219Z,98190.91
2023-05-13T23:25:45.747Z,98193.91
2023-05-13T23:27:49.361Z,98187.34
2023-05-13T23:29:52.387Z,98186.53
2023-05-13T23:31:55.676Z,98184.59
2023-05-13T23:33:58.707Z,98184.59
2023-05-13T23:36:01.788Z,98182.94
2023-05-13T23:38:04.853Z,98175.91
2023-05-13T23:40:08.931Z,98182.09
2023-05-13T23:42:13.316Z,98182.94
2023-05-13T23:44:16.309Z,98178.66
2023-05-13T23:46:19.481Z,98176.97
2023-05-13T23:48:22.596Z,98171.75
2023-05-13T23:50:25.712Z,98169.25
2023-05-13T23:52:29.152Z,98171.03
2023-05-13T23:54:32.175Z,98161.50
2023-05-13T23:56:35.507Z,98157.06
2023-05-13T23:58:39.861Z,98158.16
